Terminal Aerodrome Forecast
Issued by NWS

Home | Current Version | Previous Version | Text Only | Print | Product List | Glossary On
Versions: 1 2 3 4 5 6 7 8 9 10 11 12 13 14 15
000
FTUS45 KRIW 302322
TAFCOD
TAF
KCOD 302322Z 3100/3124 01012G20KT P6SM VCSH BKN050
     FM310200 36008KT P6SM BKN040
     FM310600 28011KT P6SM SCT070
     FM311600 02011KT P6SM SCT060
     FM312000 02011KT P6SM VCSH BKN060
      AMD LTD TO CLD VIS AND WIND=

USA.gov is the U.S. government's official web portal to all federal, state and local government web resources and services.